Time;durP1;ratioP1;P1;durP2;ratioP2;P2;SDS_P1;SDS_P2;PMS_P1;PMS_P2;Temp;Humidity;BMP_temperature;BMP_pressure;BME280_temperature;BME280_humidity;BME280_pressure;Samples;Min_cycle;Max_cycle;Signal;HPM_P1;HPM_P2
2024/05/04 00:00:10;;;;;;;10.07;6.90;;;12.40;99.90;;;-145.48;100.00;99914.09;5082129;28;20303;-78
2024/05/04 00:02:36;;;;;;;6.57;6.07;;;12.30;99.90;;;-145.48;100.00;99920.34;5080296;28;20173;-77
2024/05/04 00:05:02;;;;;;;8.20;6.70;;;12.30;99.90;;;-145.48;100.00;99920.34;5080055;28;20557;-78
2024/05/04 00:07:27;;;;;;;6.57;5.93;;;12.20;99.90;;;-145.48;100.00;99916.19;5080099;28;20169;-78
2024/05/04 00:09:53;;;;;;;8.50;6.20;;;12.20;99.90;;;-145.48;100.00;99941.16;5076448;28;20196;-77
2024/05/04 00:12:19;;;;;;;7.80;6.30;;;12.10;99.90;;;-145.48;100.00;99953.63;5059887;28;20264;-77
2024/05/04 00:14:45;;;;;;;10.83;6.50;;;12.10;99.90;;;-145.48;100.00;99970.28;5059796;28;20209;-77
2024/05/04 00:17:10;;;;;;;6.90;5.47;;;12.10;99.90;;;-145.48;100.00;99964.06;5076732;28;20247;-77
2024/05/04 00:19:38;;;;;;;7.03;6.33;;;12.10;99.90;;;-145.48;100.00;99953.63;5076544;28;20671;-77
2024/05/04 00:22:05;;;;;;;6.47;5.87;;;12.10;99.90;;;-145.48;100.00;99966.13;5075755;28;20193;-77
2024/05/04 00:24:30;;;;;;;7.90;6.10;;;12.10;99.90;;;-145.48;100.00;99957.81;5059924;28;20784;-77
2024/05/04 00:26:56;;;;;;;10.43;6.27;;;12.10;99.90;;;-145.48;100.00;99966.13;5076724;28;20435;-77
2024/05/04 00:29:22;;;;;;;8.00;7.10;;;12.10;99.90;;;-145.48;100.00;99980.69;5060035;28;20276;-76
2024/05/04 00:31:48;;;;;;;7.10;6.07;;;12.10;99.90;;;-145.48;100.00;99926.59;5076631;28;20209;-77
2024/05/04 00:34:13;;;;;;;7.80;6.73;;;12.00;99.90;;;-145.48;100.00;99916.19;5076318;28;20178;-77
2024/05/04 00:36:39;;;;;;;6.63;6.00;;;12.10;99.90;;;-145.48;100.00;99986.94;5059605;28;20647;-78
2024/05/04 00:39:05;;;;;;;10.47;5.90;;;12.10;99.90;;;-145.48;100.00;99928.66;5070360;28;20429;-78
2024/05/04 00:41:30;;;;;;;7.07;6.47;;;12.10;99.90;;;-145.48;100.00;99961.97;5079502;28;20270;-78
2024/05/04 00:43:56;;;;;;;6.17;5.57;;;12.10;99.90;;;-145.48;100.00;99980.69;5079523;28;20271;-77
2024/05/04 00:46:24;;;;;;;8.83;6.80;;;12.00;99.90;;;-145.48;100.00;99928.66;5078993;28;20193;-77
2024/05/04 00:48:51;;;;;;;14.73;9.23;;;12.00;99.90;;;-145.48;100.00;99930.75;5096224;28;20180;-77
2024/05/04 00:51:19;;;;;;;10.10;7.37;;;12.00;99.90;;;-145.48;100.00;99961.97;5075616;28;20481;-76
2024/05/04 00:53:46;;;;;;;10.60;6.63;;;12.00;99.90;;;-145.48;100.00;99895.34;5075655;28;20531;-77
2024/05/04 00:56:16;;;;;;;12.40;9.50;;;12.00;99.90;;;-145.48;100.00;99966.13;5075778;28;20515;-76
2024/05/04 00:58:42;;;;;;;11.97;9.40;;;12.00;99.90;;;-145.48;100.00;99957.81;5075575;28;20468;-77
2024/05/04 01:01:08;;;;;;;7.23;6.53;;;11.80;99.90;;;-145.48;100.00;99945.31;5058873;28;20464;-77
2024/05/04 01:03:34;;;;;;;5.70;5.20;;;12.00;99.90;;;-145.48;100.00;99949.47;5075445;28;20751;-77
2024/05/04 01:06:00;;;;;;;7.03;5.93;;;12.00;99.90;;;-145.48;100.00;99957.81;5075283;28;20428;-77
2024/05/04 01:08:26;;;;;;;9.37;6.37;;;12.10;99.90;;;-145.48;100.00;99895.34;5072207;28;20194;-77
2024/05/04 01:10:53;;;;;;;8.37;6.90;;;12.00;99.90;;;-145.48;100.00;99928.66;5055230;28;20811;-77
2024/05/04 01:13:18;;;;;;;11.03;5.40;;;12.00;99.90;;;-145.48;100.00;99974.44;5072229;28;20878;-77
2024/05/04 01:15:44;;;;;;;7.20;6.30;;;12.00;99.90;;;-145.48;100.00;99970.28;5055398;28;20437;-77
2024/05/04 01:18:54;;;;;;;6.30;5.70;;;12.00;99.90;;;-145.48;100.00;99943.22;5055395;28;20186;-76
2024/05/04 01:21:20;;;;;;;5.90;5.17;;;12.00;99.90;;;-145.48;100.00;99972.38;5087894;28;20208;-77
2024/05/04 01:23:50;;;;;;;6.20;5.70;;;11.90;99.90;;;-145.48;100.00;99945.31;5055093;28;20926;-77
2024/05/04 01:26:16;;;;;;;6.37;5.73;;;12.00;99.90;;;-145.48;100.00;99974.44;5055232;28;20889;-77
2024/05/04 01:28:42;;;;;;;6.40;5.80;;;11.90;99.90;;;-145.48;100.00;99957.81;5055105;28;20440;-77
2024/05/04 01:31:08;;;;;;;6.40;5.40;;;11.90;99.90;;;-145.48;100.00;99982.78;5055026;28;20647;-76
2024/05/04 01:33:34;;;;;;;9.20;6.43;;;11.90;99.90;;;-145.48;100.00;99953.63;5054496;28;20567;-76
2024/05/04 01:36:00;;;;;;;7.10;6.40;;;11.80;99.90;;;-145.48;100.00;99999.44;5054748;28;20187;-76
2024/05/04 01:38:25;;;;;;;6.10;5.60;;;11.80;99.90;;;-145.48;100.00;99970.28;5060219;28;20221;-78
2024/05/04 01:40:51;;;;;;;6.70;6.10;;;11.80;99.90;;;-145.48;100.00;100003.59;5074860;28;20245;-76
2024/05/04 01:43:17;;;;;;;8.20;5.73;;;11.80;99.90;;;-145.48;100.00;99957.81;5074946;28;20427;-77
2024/05/04 01:45:43;;;;;;;6.97;6.23;;;11.80;99.90;;;-145.48;100.00;99986.94;5074575;28;20661;-76
2024/05/04 01:48:09;;;;;;;6.60;5.97;;;11.80;99.90;;;-145.48;100.00;99951.56;5075367;28;20257;-77
2024/05/04 01:50:35;;;;;;;7.60;5.90;;;11.80;99.90;;;-145.48;100.00;99978.63;5074585;28;20818;-78
2024/05/04 01:53:01;;;;;;;8.37;6.03;;;11.80;99.90;;;-145.48;100.00;99955.72;5074699;28;20666;-77
2024/05/04 01:55:27;;;;;;;7.20;6.50;;;11.80;99.90;;;-145.48;100.00;99999.44;5075082;28;20322;-78
2024/05/04 01:57:53;;;;;;;6.03;5.27;;;11.80;99.90;;;-145.48;100.00;99961.97;5074544;28;20676;-78
2024/05/04 02:00:49;;;;;;;5.43;4.90;;;11.80;99.90;;;-145.48;100.00;99966.13;5054341;28;20563;-78
2024/05/04 02:03:15;;;;;;;6.50;5.80;;;11.80;99.90;;;-145.48;100.00;99959.88;5071029;28;20182;-78
2024/05/04 02:05:41;;;;;;;6.13;5.53;;;11.80;99.90;;;-145.48;100.00;99891.19;5063807;28;20433;-78
2024/05/04 02:08:48;;;;;;;6.33;5.07;;;11.80;99.90;;;-145.48;100.00;99930.75;5090481;28;20269;-78
2024/05/04 02:11:14;;;;;;;6.63;5.97;;;11.80;99.90;;;-145.48;100.00;99964.06;5056913;28;20186;-76
2024/05/04 02:13:39;;;;;;;9.90;6.33;;;11.70;99.90;;;-145.48;100.00;99974.44;5066604;28;20524;-76
2024/05/04 02:16:05;;;;;;;5.70;5.13;;;11.70;99.90;;;-145.48;100.00;99949.47;5070689;28;20639;-76
2024/05/04 02:18:31;;;;;;;7.27;6.50;;;11.70;99.90;;;-145.48;100.00;99978.63;5053711;28;20551;-78
2024/05/04 02:20:57;;;;;;;5.90;5.23;;;11.70;99.90;;;-145.48;100.00;99941.16;5054092;28;20465;-77
2024/05/04 02:23:25;;;;;;;6.73;6.13;;;11.80;99.90;;;-145.48;100.00;99999.44;5054313;28;20178;-77
2024/05/04 02:25:52;;;;;;;6.20;5.60;;;11.80;99.90;;;-145.48;100.00;100005.69;5054431;28;20237;-77
2024/05/04 02:28:18;;;;;;;9.70;6.33;;;11.70;99.90;;;-145.48;100.00;100016.09;5070829;28;20959;-77
2024/05/04 02:30:44;;;;;;;7.60;5.87;;;11.70;99.90;;;-145.48;100.00;99986.94;5054064;28;20441;-78
2024/05/04 02:33:13;;;;;;;7.07;6.27;;;11.70;99.90;;;-145.48;100.00;99984.88;5053995;28;20566;-76
2024/05/04 02:35:39;;;;;;;7.33;5.73;;;11.60;99.90;;;-145.48;100.00;99974.44;5054693;28;20272;-78
2024/05/04 02:38:05;;;;;;;6.23;5.40;;;11.60;99.90;;;-145.48;100.00;99986.94;5073075;28;20532;-77
2024/05/04 02:40:31;;;;;;;6.97;5.93;;;11.50;99.90;;;-145.48;100.00;99991.09;5073961;28;20214;-77
2024/05/04 02:42:56;;;;;;;6.10;5.07;;;11.50;99.90;;;-145.48;100.00;99993.19;5074091;28;20279;-77
2024/05/04 02:45:22;;;;;;;6.10;5.07;;;11.50;99.90;;;-145.48;100.00;99982.78;5073591;28;20182;-76
2024/05/04 02:47:48;;;;;;;7.00;6.30;;;11.50;99.90;;;-145.48;100.00;99993.19;5074241;28;20189;-77
2024/05/04 02:50:14;;;;;;;6.43;5.50;;;11.50;99.90;;;-145.48;100.00;99995.28;5073778;28;20248;-77
2024/05/04 02:52:40;;;;;;;5.90;5.30;;;11.50;99.90;;;-145.48;100.00;99974.44;5090905;28;20219;-76
2024/05/04 02:55:06;;;;;;;5.43;4.90;;;11.50;99.90;;;-145.48;100.00;100007.75;5074156;28;20512;-77
2024/05/04 02:57:32;;;;;;;9.40;5.57;;;11.50;99.90;;;-145.48;100.00;100007.75;5073975;28;20194;-76
2024/05/04 02:59:58;;;;;;;6.13;5.53;;;11.40;99.90;;;-145.48;100.00;99978.63;5073858;28;21029;-77
2024/05/04 03:02:23;;;;;;;5.77;5.27;;;11.40;99.90;;;-145.48;100.00;100045.22;5073758;28;20238;-77
2024/05/04 03:04:49;;;;;;;5.47;4.80;;;11.40;99.90;;;-145.48;100.00;99986.94;5073835;28;20186;-77
2024/05/04 03:07:15;;;;;;;7.00;6.30;;;11.40;99.90;;;-145.48;100.00;100003.59;5073697;28;20258;-77
2024/05/04 03:09:44;;;;;;;5.83;5.20;;;11.40;99.90;;;-145.48;100.00;99997.34;5073871;28;20197;-77
2024/05/04 03:12:10;;;;;;;6.00;5.50;;;11.40;99.90;;;-145.48;100.00;99995.28;5090648;28;20256;-77
2024/05/04 03:14:39;;;;;;;5.53;5.00;;;11.40;99.90;;;-145.48;100.00;100030.66;5072956;28;20467;-77
2024/05/04 03:17:05;;;;;;;7.40;5.77;;;11.40;99.90;;;-145.48;100.00;100007.75;5073724;28;20193;-78
2024/05/04 03:19:30;;;;;;;6.77;5.40;;;11.40;99.90;;;-145.48;100.00;100007.75;5073665;28;20448;-78
2024/05/04 03:21:56;;;;;;;7.77;6.03;;;11.30;99.90;;;-145.48;100.00;100007.75;5073675;28;20598;-77
2024/05/04 03:24:25;;;;;;;6.10;5.50;;;11.30;99.90;;;-145.48;100.00;100016.09;5073673;28;20228;-78
2024/05/04 03:26:52;;;;;;;7.00;6.40;;;11.20;99.90;;;-145.48;100.00;100007.75;5073693;28;20686;-77
2024/05/04 03:29:18;;;;;;;7.17;4.87;;;11.20;99.90;;;-145.48;100.00;99982.78;5073379;28;20428;-77
2024/05/04 03:31:44;;;;;;;6.50;5.73;;;11.30;99.90;;;-145.48;100.00;100016.09;5073506;28;20428;-77
2024/05/04 03:34:11;;;;;;;5.63;5.13;;;11.30;99.90;;;-145.48;100.00;100026.50;5073474;28;20436;-77
2024/05/04 03:36:40;;;;;;;7.50;6.23;;;11.30;99.90;;;-145.48;100.00;99999.44;5073758;28;20545;-77
2024/05/04 03:39:06;;;;;;;8.97;5.00;;;11.30;99.90;;;-145.48;100.00;99999.44;5070239;28;20460;-79
2024/05/04 03:41:32;;;;;;;6.30;5.70;;;11.30;99.90;;;-145.48;100.00;100028.56;5053705;28;20523;-78
2024/05/04 03:44:01;;;;;;;7.43;6.03;;;11.30;99.90;;;-145.48;100.00;100011.91;5070659;28;20612;-77
2024/05/04 03:46:27;;;;;;;6.60;6.00;;;11.30;99.90;;;-145.48;100.00;100016.09;5070973;28;20232;-78
2024/05/04 03:48:53;;;;;;;6.90;5.37;;;11.30;99.90;;;-145.48;100.00;100016.09;5070961;28;20425;-78
2024/05/04 03:51:19;;;;;;;7.10;6.40;;;11.30;99.90;;;-145.48;100.00;99995.28;5058208;28;20182;-77
2024/05/04 03:53:45;;;;;;;7.30;6.00;;;11.30;99.90;;;-145.48;100.00;99999.44;5074452;28;20283;-78
2024/05/04 03:56:10;;;;;;;7.23;5.43;;;11.20;99.90;;;-145.48;100.00;99991.09;5058500;28;20500;-77
2024/05/04 03:58:36;;;;;;;6.27;5.63;;;11.20;99.90;;;-145.48;100.00;99982.78;5078021;28;20186;-77
2024/05/04 04:01:02;;;;;;;6.23;5.63;;;11.20;99.90;;;-145.48;100.00;99980.69;5077733;28;20221;-77
2024/05/04 04:03:28;;;;;;;7.37;5.80;;;11.20;99.90;;;-145.48;100.00;99999.44;5077788;28;20261;-77
2024/05/04 04:05:54;;;;;;;7.73;6.90;;;11.30;99.90;;;-145.48;100.00;100030.66;5060773;28;20460;-77
2024/05/04 04:08:20;;;;;;;5.90;5.40;;;11.30;99.90;;;-145.48;100.00;99999.44;5082209;28;20177;-78
2024/05/04 04:10:46;;;;;;;9.87;6.77;;;11.30;99.90;;;-145.48;100.00;99991.09;5080878;28;20235;-77
2024/05/04 04:13:12;;;;;;;6.87;6.27;;;11.30;99.90;;;-145.48;100.00;100022.31;5098542;28;20573;-77
2024/05/04 04:15:38;;;;;;;6.77;6.17;;;11.30;99.90;;;-145.48;100.00;100036.91;5097287;28;20944;-77
2024/05/04 04:18:05;;;;;;;7.80;7.03;;;11.30;99.90;;;-145.48;100.00;100011.91;5080897;28;20453;-77
2024/05/04 04:20:31;;;;;;;9.53;6.10;;;11.30;99.90;;;-145.48;100.00;100011.91;5080465;28;20261;-77
2024/05/04 04:22:57;;;;;;;9.10;6.43;;;11.30;99.90;;;-145.48;100.00;100041.06;5080353;28;20435;-77
2024/05/04 04:25:23;;;;;;;6.90;5.60;;;11.40;99.90;;;-145.48;100.00;99995.28;5080122;28;20449;-77
2024/05/04 04:27:50;;;;;;;7.93;6.70;;;11.30;99.90;;;-145.48;100.00;100057.72;5079966;28;20654;-77
2024/05/04 04:30:16;;;;;;;7.43;6.37;;;11.30;99.90;;;-145.48;100.00;99986.94;5080424;28;20663;-79
2024/05/04 04:32:43;;;;;;;8.80;6.50;;;11.20;99.90;;;-145.48;100.00;100034.81;5080414;28;20529;-78
2024/05/04 04:35:09;;;;;;;9.43;6.53;;;11.20;99.90;;;-145.48;100.00;99970.28;5079963;28;20500;-78
2024/05/04 04:37:35;;;;;;;9.83;6.10;;;11.30;99.90;;;-145.48;100.00;99974.44;5079657;28;20469;-79
2024/05/04 04:40:01;;;;;;;7.43;6.67;;;11.30;99.90;;;-145.48;100.00;99984.88;5096560;28;20241;-78
2024/05/04 04:42:27;;;;;;;9.63;5.63;;;11.30;99.90;;;-145.48;100.00;100053.53;5079669;28;20195;-78
2024/05/04 04:44:53;;;;;;;13.23;7.17;;;11.40;99.90;;;-145.48;100.00;100032.72;5079766;28;20415;-76
2024/05/04 04:47:18;;;;;;;13.53;6.97;;;11.40;99.90;;;-145.48;100.00;100003.59;5079497;28;20272;-78
2024/05/04 04:49:44;;;;;;;6.70;5.67;;;11.40;99.90;;;-145.48;100.00;100020.25;5079464;28;20252;-78
2024/05/04 04:52:10;;;;;;;6.17;5.57;;;11.40;99.90;;;-145.48;100.00;100020.25;5079421;28;20222;-77
2024/05/04 04:54:36;;;;;;;8.70;6.80;;;11.40;99.90;;;-145.48;100.00;100003.59;5079258;28;20192;-76
2024/05/04 04:57:03;;;;;;;6.03;5.53;;;11.50;99.90;;;-145.48;100.00;100011.91;5096438;28;20779;-77
2024/05/04 04:59:30;;;;;;;6.33;5.73;;;11.50;99.90;;;-145.48;100.00;99999.44;5079179;28;20516;-78
2024/05/04 05:01:56;;;;;;;6.63;6.10;;;11.10;99.90;;;-145.48;100.00;100036.91;5079354;28;20457;-78
2024/05/04 05:04:22;;;;;;;7.00;6.30;;;11.50;99.90;;;-145.48;100.00;99997.34;5079112;28;20434;-77
2024/05/04 05:06:48;;;;;;;8.23;7.40;;;11.50;99.90;;;-145.48;100.00;100007.75;5078704;28;20224;-76
2024/05/04 05:09:13;;;;;;;7.63;5.70;;;11.40;99.90;;;-145.48;100.00;100011.91;5078820;28;20655;-77
2024/05/04 05:11:39;;;;;;;6.10;5.60;;;11.50;99.90;;;-145.48;100.00;100016.09;5078987;28;20552;-77
2024/05/04 05:14:05;;;;;;;8.90;6.43;;;11.50;99.60;;;-145.48;100.00;99984.88;5078972;28;20284;-77
2024/05/04 05:16:31;;;;;;;12.87;7.60;;;11.50;99.90;;;-145.48;100.00;99999.44;5078881;28;20193;-77
2024/05/04 05:18:56;;;;;;;9.17;6.00;;;11.60;99.90;;;-145.48;100.00;99995.28;5078708;28;20646;-77
2024/05/04 05:21:23;;;;;;;6.90;6.20;;;11.60;99.90;;;-145.48;100.00;99957.81;5078745;28;20557;-78
2024/05/04 05:23:49;;;;;;;7.50;6.67;;;11.70;99.90;;;-145.48;100.00;99982.78;5095667;28;20181;-77
2024/05/04 05:26:15;;;;;;;7.87;5.80;;;11.70;99.90;;;-145.48;100.00;99997.34;5078752;28;20420;-76
2024/05/04 05:28:40;;;;;;;7.20;6.37;;;11.70;99.90;;;-145.48;100.00;99991.09;5078529;28;20992;-77
2024/05/04 05:31:06;;;;;;;7.30;6.67;;;11.80;99.10;;;-145.48;100.00;99982.78;5078571;28;20169;-77
2024/05/04 05:33:32;;;;;;;9.03;6.40;;;11.70;99.10;;;-145.48;100.00;99961.97;5078682;28;20228;-77
2024/05/04 05:35:58;;;;;;;7.70;5.97;;;11.70;99.70;;;-145.48;100.00;99978.63;5078525;28;20423;-77
2024/05/04 05:38:24;;;;;;;6.27;5.80;;;11.80;99.90;;;-145.48;100.00;99957.81;5078198;28;20805;-77
2024/05/04 05:40:50;;;;;;;7.80;6.80;;;11.80;98.00;;;-145.48;100.00;99976.53;5078344;28;20204;-77
2024/05/04 05:43:17;;;;;;;8.50;7.30;;;11.80;99.00;;;-145.48;100.00;99961.97;5078311;28;20203;-76
2024/05/04 05:45:42;;;;;;;9.00;7.10;;;11.80;99.20;;;-145.48;100.00;99974.44;5078131;28;20184;-76
2024/05/04 05:48:08;;;;;;;7.40;6.37;;;11.80;98.70;;;-145.48;100.00;100003.59;5078130;28;20423;-78
2024/05/04 05:50:34;;;;;;;7.60;6.70;;;11.80;99.30;;;-145.48;100.00;99984.88;5077885;28;20228;-76
2024/05/04 05:53:04;;;;;;;7.13;6.40;;;11.90;97.40;;;-145.48;100.00;99976.53;5077799;28;20656;-77
2024/05/04 05:55:30;;;;;;;10.93;7.33;;;11.90;97.50;;;-145.48;100.00;99974.44;5078234;28;20574;-77
2024/05/04 05:57:56;;;;;;;7.47;6.00;;;11.90;97.80;;;-145.48;100.00;99970.28;5078081;28;21040;-77
2024/05/04 06:00:22;;;;;;;7.43;6.73;;;12.00;98.20;;;-145.48;100.00;99928.66;5077641;28;20474;-79
2024/05/04 06:02:48;;;;;;;7.40;6.00;;;12.00;98.30;;;-145.48;100.00;99939.06;5077729;28;20181;-79
2024/05/04 06:05:14;;;;;;;8.03;6.33;;;12.10;97.90;;;-145.48;100.00;99941.16;5077678;28;20227;-80
2024/05/04 06:07:41;;;;;;;8.30;6.87;;;12.20;97.40;;;-145.48;100.00;99957.81;5077354;28;20189;-79
2024/05/04 06:10:08;;;;;;;6.73;5.33;;;12.30;96.20;;;-145.48;100.00;99945.31;5077495;28;20530;-77
2024/05/04 06:12:34;;;;;;;6.07;5.30;;;12.30;95.50;;;-145.48;100.00;99903.69;5077557;28;20884;-79
2024/05/04 06:15:00;;;;;;;6.77;5.80;;;12.30;94.50;;;-145.48;100.00;99926.59;5077529;28;20484;-79
2024/05/04 06:17:32;;;;;;;6.63;5.67;;;12.30;94.20;;;-145.48;100.00;99905.78;5077467;28;20430;-80
2024/05/04 06:19:58;;;;;;;5.97;5.20;;;12.40;93.80;;;-145.48;100.00;99957.81;5077875;28;20257;-78
2024/05/04 06:22:24;;;;;;;5.97;5.33;;;12.40;93.10;;;-145.48;100.00;99907.84;5077542;28;20427;-80
2024/05/04 06:24:50;;;;;;;6.50;5.20;;;12.50;92.60;;;-145.48;100.00;99941.16;5077220;28;20431;-78
2024/05/04 06:27:16;;;;;;;5.67;5.17;;;12.60;92.80;;;-145.48;100.00;99916.19;5077180;28;20622;-79
2024/05/04 06:29:43;;;;;;;5.30;4.80;;;12.60;92.10;;;-145.48;100.00;99916.19;5077674;28;20954;-76
2024/05/04 06:32:10;;;;;;;5.20;4.20;;;12.70;91.10;;;-145.48;100.00;99895.34;5077466;28;20446;-76
2024/05/04 06:34:40;;;;;;;6.17;5.53;;;12.80;91.40;;;-145.48;100.00;99835.00;5077228;28;20434;-76
2024/05/04 06:37:07;;;;;;;6.40;5.60;;;12.90;90.90;;;-145.48;100.00;99853.75;5077277;28;20429;-77
2024/05/04 06:39:33;;;;;;;6.50;4.20;;;12.90;87.60;;;-145.48;100.00;99891.19;5076942;28;20802;-76
2024/05/04 06:41:59;;;;;;;6.47;4.70;;;13.10;86.10;;;-145.48;100.00;99862.06;5077285;28;20439;-76
2024/05/04 06:44:28;;;;;;;5.37;4.63;;;13.10;83.80;;;-145.48;100.00;99853.75;5077160;28;20426;-77
2024/05/04 06:46:54;;;;;;;3.53;3.23;;;13.20;79.10;;;-145.48;100.00;99874.53;5077223;28;20199;-77
2024/05/04 06:49:20;;;;;;;6.37;4.87;;;13.20;80.80;;;-145.48;100.00;99837.09;5093423;28;20490;-77
2024/05/04 06:51:46;;;;;;;6.17;4.53;;;13.30;79.60;;;-145.48;100.00;99870.38;5077363;28;20463;-76
2024/05/04 06:54:12;;;;;;;4.60;4.20;;;13.30;76.50;;;-145.48;100.00;99882.88;5077393;28;20660;-77
2024/05/04 06:56:38;;;;;;;4.50;4.00;;;13.30;78.40;;;-145.48;100.00;99841.25;5076736;28;20183;-77
2024/05/04 06:59:05;;;;;;;4.87;4.10;;;13.40;77.20;;;-145.48;100.00;99835.00;5077118;28;20547;-77
2024/05/04 07:01:31;;;;;;;4.67;4.10;;;13.50;77.10;;;-145.48;100.00;99849.56;5077664;28;20290;-78
2024/05/04 07:03:57;;;;;;;4.53;3.60;;;13.60;74.00;;;-145.48;100.00;99837.09;5077467;28;20451;-78
2024/05/04 07:06:23;;;;;;;4.23;3.70;;;13.70;71.30;;;-145.48;100.00;99841.25;5077563;28;20221;-77
2024/05/04 07:08:50;;;;;;;4.60;3.90;;;13.80;70.40;;;-145.48;100.00;99812.09;5077689;28;20177;-78
2024/05/04 07:11:16;;;;;;;5.60;4.33;;;13.80;67.70;;;-145.48;100.00;99785.06;5077738;28;20189;-78
2024/05/04 07:13:43;;;;;;;3.80;3.50;;;14.00;68.10;;;-145.48;100.00;99824.59;5078382;28;20435;-77
2024/05/04 07:16:08;;;;;;;5.10;3.70;;;14.00;64.20;;;-145.48;100.00;99799.63;5077947;28;20427;-77
2024/05/04 07:18:35;;;;;;;6.53;3.20;;;14.10;62.00;;;-145.48;100.00;99791.28;5077798;28;20426;-77
2024/05/04 07:21:00;;;;;;;4.33;3.53;;;14.20;64.10;;;-145.48;100.00;99743.44;5077846;28;20304;-79
2024/05/04 07:23:26;;;;;;;6.47;3.20;;;14.30;58.20;;;-145.48;100.00;99764.25;5078409;28;20455;-78
2024/05/04 07:25:52;;;;;;;4.30;3.17;;;14.40;52.90;;;-145.48;100.00;99724.69;5078100;28;20555;-78
2024/05/04 07:28:18;;;;;;;3.20;2.90;;;14.40;51.80;;;-145.48;100.00;99739.25;5077690;28;20480;-78
2024/05/04 07:30:45;;;;;;;7.43;3.50;;;14.50;53.90;;;-145.48;100.00;99737.19;5078012;28;20209;-77
2024/05/04 07:33:14;;;;;;;7.73;3.00;;;14.60;52.80;;;-145.48;100.00;99733.03;5080323;28;20185;-79
2024/05/04 07:35:42;;;;;;;3.30;3.07;;;14.60;44.40;;;-145.48;100.00;99745.50;5081842;28;20427;-79
2024/05/04 07:38:07;;;;;;;2.93;2.73;;;14.70;48.00;;;-145.48;100.00;99716.38;5081921;28;20427;-79
2024/05/04 07:40:33;;;;;;;4.30;2.80;;;14.80;51.50;;;-145.48;100.00;99741.34;5082176;28;20871;-78
2024/05/04 07:42:59;;;;;;;2.70;2.20;;;14.80;46.00;;;-145.48;100.00;99689.31;5083733;28;20227;-79
2024/05/04 07:45:25;;;;;;;2.87;1.93;;;14.90;37.90;;;-145.48;100.00;99726.78;5081168;28;20560;-79
2024/05/04 07:47:51;;;;;;;5.57;3.10;;;14.90;36.50;;;-145.48;100.00;99733.03;5098086;28;20288;-79
2024/05/04 07:50:17;;;;;;;4.00;1.90;;;14.90;35.50;;;-145.48;99.80;99699.72;5081033;28;20550;-79
2024/05/04 07:52:43;;;;;;;7.37;3.00;;;15.00;33.00;;;-145.48;99.65;99695.56;5083471;28;20272;-79
2024/05/04 07:55:10;;;;;;;4.83;2.00;;;15.10;29.30;;;-145.48;98.89;99639.38;5081352;28;20293;-80
2024/05/04 07:57:36;;;;;;;2.60;2.37;;;15.10;22.80;;;-145.48;99.06;99699.72;5080521;28;20230;-79
2024/05/04 08:00:01;;;;;;;2.70;2.20;;;15.20;23.60;;;-145.48;98.73;99676.81;5096743;28;20466;-79
2024/05/04 08:02:27;;;;;;;2.27;1.77;;;15.20;21.80;;;-145.48;98.64;99699.72;5080416;28;20189;-79
2024/05/04 08:04:53;;;;;;;2.40;2.20;;;15.30;20.40;;;-145.48;98.56;99674.75;5080188;28;20200;-79
2024/05/04 08:07:19;;;;;;;3.23;1.97;;;15.30;20.40;;;-145.48;98.21;99699.72;5097881;28;20207;-79
2024/05/04 08:09:45;;;;;;;4.20;2.20;;;15.30;16.60;;;-145.48;98.12;99664.34;5080387;28;21006;-78
2024/05/04 08:12:13;;;;;;;4.17;2.63;;;15.40;15.50;;;-145.48;98.39;99668.50;5096286;28;20605;-78
2024/05/04 08:14:40;;;;;;;3.60;2.80;;;15.40;16.50;;;-145.48;98.21;99685.16;5079893;28;20176;-78
2024/05/04 08:17:07;;;;;;;2.47;2.27;;;15.50;16.30;;;-145.48;98.18;99668.50;5115258;28;20458;-77
2024/05/04 08:19:33;;;;;;;3.40;2.27;;;15.50;15.40;;;-145.48;97.51;99635.19;5080002;28;20462;-77
2024/05/04 08:21:58;;;;;;;3.43;2.30;;;15.50;7.50;;;-145.48;97.49;99656.00;5080224;28;20855;-77
2024/05/04 08:24:25;;;;;;;6.47;2.70;;;15.60;7.50;;;-145.48;97.40;99633.13;5080771;28;20238;-78
2024/05/04 08:26:51;;;;;;;3.70;2.47;;;15.60;8.10;;;-145.48;97.52;99662.25;5082254;28;20546;-75
2024/05/04 08:29:16;;;;;;;4.70;3.33;;;15.70;8.80;;;-145.48;97.36;99647.69;5097498;28;20427;-78
2024/05/04 08:31:42;;;;;;;5.80;3.27;;;15.70;8.20;;;-145.48;97.56;99643.53;5080080;28;20177;-78
2024/05/04 08:34:08;;;;;;;3.93;2.90;;;15.80;9.00;;;-145.48;97.37;99645.59;5079621;28;20238;-77
2024/05/04 08:36:34;;;;;;;4.17;3.33;;;15.80;7.10;;;-145.48;97.45;99658.09;5079589;28;20237;-77
2024/05/04 08:38:59;;;;;;;6.00;3.80;;;15.80;7.40;;;-145.48;97.00;99631.03;5076205;28;20186;-77
2024/05/04 08:41:25;;;;;;;5.67;3.30;;;15.90;1.90;;;-145.48;96.34;99628.97;5075728;28;20197;-77
2024/05/04 08:43:52;;;;;;;6.50;4.93;;;15.90;1.00;;;-145.48;96.70;99651.84;5075429;28;20170;-77
2024/05/04 08:46:22;;;;;;;3.00;2.50;;;16.00;1.00;;;-145.48;95.81;99608.16;5075730;28;20634;-79
2024/05/04 08:48:48;;;;;;;3.03;2.77;;;16.10;1.00;;;-145.48;95.01;99620.63;5059446;28;20443;-79
2024/05/04 08:51:14;;;;;;;3.53;2.10;;;16.10;1.00;;;-145.48;94.43;99599.81;5076317;28;20960;-79
2024/05/04 08:53:42;;;;;;;4.10;2.40;;;16.10;1.00;;;-145.48;93.92;99560.28;5075431;28;20881;-79
2024/05/04 08:56:12;;;;;;;1.83;1.40;;;16.20;1.00;;;-145.48;94.03;99558.19;5075404;28;20463;-78
2024/05/04 08:58:48;;;;;;;2.40;1.80;;;16.20;1.00;;;-145.48;93.71;99583.16;5077804;28;20859;-78
2024/05/04 09:01:14;;;;;;;3.57;1.70;;;16.30;1.00;;;-145.48;93.79;99603.97;5060901;28;20497;-79
2024/05/04 09:03:40;;;;;;;4.57;1.67;;;16.60;1.00;;;-145.48;93.91;99603.97;5058813;28;20503;-78
2024/05/04 09:06:08;;;;;;;2.50;2.30;;;16.40;1.00;;;-145.48;93.61;99579.00;5075579;28;20863;-78
2024/05/04 09:08:36;;;;;;;2.80;2.13;;;16.40;1.00;;;-145.48;93.63;99562.38;5075408;28;20189;-77
2024/05/04 09:11:02;;;;;;;8.60;6.10;;;16.50;1.00;;;-145.48;93.55;99562.38;5059371;28;20435;-80
2024/05/04 09:13:27;;;;;;;4.30;3.10;;;16.50;1.00;;;-145.48;92.91;99524.91;5042041;28;20520;-80
2024/05/04 09:15:58;;;;;;;2.73;1.70;;;16.60;1.00;;;-145.48;92.29;99520.75;5058144;28;20239;-79
2024/05/04 09:18:25;;;;;;;4.50;1.80;;;16.60;1.00;;;-145.48;92.52;99545.72;5058443;28;20182;-80
2024/05/04 09:20:51;;;;;;;4.57;2.40;;;16.60;1.00;;;-145.48;92.86;99549.88;5057542;28;20581;-79
2024/05/04 09:23:19;;;;;;;3.60;3.20;;;16.60;1.00;;;-145.48;92.65;99556.13;5057426;28;20919;-78
2024/05/04 09:25:45;;;;;;;2.13;1.87;;;16.70;1.00;;;-145.48;92.20;99495.75;5058030;28;20920;-79
2024/05/04 09:28:10;;;;;;;2.23;1.53;;;16.70;1.00;;;-145.48;92.56;99506.16;5057740;28;20481;-78
2024/05/04 09:30:37;;;;;;;2.83;1.63;;;16.70;1.00;;;-145.48;92.89;99506.16;5057790;28;20626;-79
2024/05/04 09:33:03;;;;;;;2.13;1.57;;;16.60;1.00;;;-145.48;92.91;99547.78;5058129;28;20200;-79
2024/05/04 09:35:32;;;;;;;3.00;1.97;;;16.70;1.00;;;-145.48;92.64;99545.72;5058046;28;20438;-79
2024/05/04 09:38:00;;;;;;;7.70;1.60;;;16.70;1.00;;;-145.48;92.33;99512.41;5059711;28;20593;-79
2024/05/04 09:40:29;;;;;;;4.60;1.83;;;16.70;1.00;;;-145.48;92.41;99545.72;5078092;28;21093;-79
2024/05/04 09:42:56;;;;;;;2.17;1.50;;;16.70;1.00;;;-145.48;92.96;99487.44;5078852;28;20442;-79
2024/05/04 09:45:22;;;;;;;2.77;1.40;;;16.70;1.00;;;-145.48;92.94;99520.75;5077873;28;20500;-79
2024/05/04 09:47:50;;;;;;;6.40;1.20;;;16.80;1.00;;;-145.48;90.80;99508.25;5061362;28;20465;-79
2024/05/04 09:50:19;;;;;;;3.63;1.50;;;16.80;1.00;;;-145.48;90.42;99512.41;5073914;28;20483;-80
2024/05/04 09:52:44;;;;;;;3.33;1.60;;;16.90;1.00;;;-145.48;90.38;99533.22;5074146;28;20463;-78
2024/05/04 09:55:11;;;;;;;3.23;1.20;;;16.90;1.00;;;-145.48;89.47;99545.72;5073113;28;20522;-79
2024/05/04 09:57:42;;;;;;;3.70;1.30;;;16.90;1.00;;;-145.48;89.09;99508.25;5057575;28;20626;-78